sensor_id;sensor_type;location;lat;lon;timestamp;pressure;altitude;pressure_sealevel;temperature;humidity
22257;BME280;11297;42.686;23.374;2022-07-04T00:02:10;95255.78;;;23.88;53.58
22257;BME280;11297;42.686;23.374;2022-07-04T00:04:36;95255.78;;;23.81;53.99
22257;BME280;11297;42.686;23.374;2022-07-04T00:07:01;95255.78;;;23.88;54.81
22257;BME280;11297;42.686;23.374;2022-07-04T00:09:27;95257.34;;;23.99;53.39
22257;BME280;11297;42.686;23.374;2022-07-04T00:11:52;95261.47;;;23.86;53.39
22257;BME280;11297;42.686;23.374;2022-07-04T00:14:18;95253.50;;;23.83;54.52
22257;BME280;11297;42.686;23.374;2022-07-04T00:16:43;95243.94;;;23.61;53.54
22257;BME280;11297;42.686;23.374;2022-07-04T00:19:08;95244.75;;;23.65;53.18
22257;BME280;11297;42.686;23.374;2022-07-04T00:21:34;95252.69;;;23.68;54.20
22257;BME280;11297;42.686;23.374;2022-07-04T00:24:00;95242.88;;;23.83;54.12
22257;BME280;11297;42.686;23.374;2022-07-04T00:26:26;95240.63;;;23.78;52.68
22257;BME280;11297;42.686;23.374;2022-07-04T00:28:52;95248.19;;;23.72;52.26
22257;BME280;11297;42.686;23.374;2022-07-04T00:31:17;95247.03;;;23.70;53.49
22257;BME280;11297;42.686;23.374;2022-07-04T00:33:42;95251.91;;;23.61;53.99
22257;BME280;11297;42.686;23.374;2022-07-04T00:36:08;95252.31;;;23.70;54.95
22257;BME280;11297;42.686;23.374;2022-07-04T00:38:33;95249.69;;;23.73;53.61
22257;BME280;11297;42.686;23.374;2022-07-04T00:40:59;95240.59;;;23.67;55.29
22257;BME280;11297;42.686;23.374;2022-07-04T00:43:26;95237.94;;;23.71;53.30
22257;BME280;11297;42.686;23.374;2022-07-04T00:45:51;95230.34;;;23.66;53.82
22257;BME280;11297;42.686;23.374;2022-07-04T00:48:18;95239.38;;;23.58;52.85
22257;BME280;11297;42.686;23.374;2022-07-04T00:50:45;95235.97;;;23.57;53.26
22257;BME280;11297;42.686;23.374;2022-07-04T00:53:12;95239.22;;;23.13;53.25
22257;BME280;11297;42.686;23.374;2022-07-04T00:55:38;95246.56;;;23.44;53.87
22257;BME280;11297;42.686;23.374;2022-07-04T00:58:04;95242.03;;;23.51;54.35
22257;BME280;11297;42.686;23.374;2022-07-04T01:00:30;95235.19;;;23.53;53.23
22257;BME280;11297;42.686;23.374;2022-07-04T01:02:55;95234.53;;;23.70;52.52
22257;BME280;11297;42.686;23.374;2022-07-04T01:05:21;95237.53;;;23.65;51.80
22257;BME280;11297;42.686;23.374;2022-07-04T01:07:46;95230.63;;;23.51;52.40
22257;BME280;11297;42.686;23.374;2022-07-04T01:10:12;95216.59;;;23.36;52.24
22257;BME280;11297;42.686;23.374;2022-07-04T01:12:38;95229.88;;;23.53;53.04
22257;BME280;11297;42.686;23.374;2022-07-04T01:15:05;95235.44;;;23.21;52.37
22257;BME280;11297;42.686;23.374;2022-07-04T01:17:31;95223.69;;;23.11;52.88
22257;BME280;11297;42.686;23.374;2022-07-04T01:19:56;95234.59;;;22.96;53.49
22257;BME280;11297;42.686;23.374;2022-07-04T01:22:22;95227.81;;;23.06;52.75
22257;BME280;11297;42.686;23.374;2022-07-04T01:24:48;95232.00;;;23.13;54.04
22257;BME280;11297;42.686;23.374;2022-07-04T01:27:15;95220.69;;;23.27;52.26
22257;BME280;11297;42.686;23.374;2022-07-04T01:29:40;95223.34;;;23.20;51.83
22257;BME280;11297;42.686;23.374;2022-07-04T01:32:07;95225.50;;;22.97;52.32
22257;BME280;11297;42.686;23.374;2022-07-04T01:34:33;95231.69;;;23.22;53.26
22257;BME280;11297;42.686;23.374;2022-07-04T01:36:59;95231.34;;;23.34;53.97
22257;BME280;11297;42.686;23.374;2022-07-04T01:39:26;95232.56;;;23.57;52.92
22257;BME280;11297;42.686;23.374;2022-07-04T01:41:51;95236.81;;;23.75;51.31
22257;BME280;11297;42.686;23.374;2022-07-04T01:44:17;95229.22;;;23.74;50.13
22257;BME280;11297;42.686;23.374;2022-07-04T01:46:42;95224.25;;;23.65;50.82
22257;BME280;11297;42.686;23.374;2022-07-04T01:49:08;95234.56;;;23.84;50.54
22257;BME280;11297;42.686;23.374;2022-07-04T01:51:34;95238.34;;;23.90;51.18
22257;BME280;11297;42.686;23.374;2022-07-04T01:53:59;95238.72;;;23.82;49.27
22257;BME280;11297;42.686;23.374;2022-07-04T01:56:25;95234.53;;;23.74;49.55
22257;BME280;11297;42.686;23.374;2022-07-04T01:58:50;95232.63;;;23.71;50.60
22257;BME280;11297;42.686;23.374;2022-07-04T02:01:16;95230.72;;;23.68;48.88
22257;BME280;11297;42.686;23.374;2022-07-04T02:04:01;95236.66;;;23.37;49.53
22257;BME280;11297;42.686;23.374;2022-07-04T02:06:28;95241.22;;;23.33;49.06
22257;BME280;11297;42.686;23.374;2022-07-04T02:08:54;95235.50;;;23.31;49.63
22257;BME280;11297;42.686;23.374;2022-07-04T02:11:38;95231.34;;;23.37;50.75
22257;BME280;11297;42.686;23.374;2022-07-04T02:14:22;95229.47;;;23.38;49.12
22257;BME280;11297;42.686;23.374;2022-07-04T02:16:48;95232.09;;;23.34;48.42
22257;BME280;11297;42.686;23.374;2022-07-04T02:19:13;95238.47;;;23.16;48.59
22257;BME280;11297;42.686;23.374;2022-07-04T02:21:39;95250.66;;;23.27;50.55
22257;BME280;11297;42.686;23.374;2022-07-04T02:24:05;95249.25;;;23.54;51.25
22257;BME280;11297;42.686;23.374;2022-07-04T02:26:30;95243.66;;;23.76;48.01
22257;BME280;11297;42.686;23.374;2022-07-04T02:28:56;95240.59;;;23.85;46.96
22257;BME280;11297;42.686;23.374;2022-07-04T02:31:21;95247.41;;;23.75;47.36
22257;BME280;11297;42.686;23.374;2022-07-04T02:33:47;95244.41;;;23.73;48.58
22257;BME280;11297;42.686;23.374;2022-07-04T02:36:12;95245.91;;;23.85;46.63
22257;BME280;11297;42.686;23.374;2022-07-04T02:38:38;95237.19;;;23.77;47.61
22257;BME280;11297;42.686;23.374;2022-07-04T02:41:03;95239.41;;;23.61;46.73
22257;BME280;11297;42.686;23.374;2022-07-04T02:43:28;95248.53;;;23.64;48.84
22257;BME280;11297;42.686;23.374;2022-07-04T02:45:54;95245.88;;;23.64;47.37
22257;BME280;11297;42.686;23.374;2022-07-04T02:48:19;95242.88;;;23.69;50.44
22257;BME280;11297;42.686;23.374;2022-07-04T02:50:45;95242.91;;;23.79;49.10
22257;BME280;11297;42.686;23.374;2022-07-04T02:53:10;95244.00;;;23.82;46.65
22257;BME280;11297;42.686;23.374;2022-07-04T02:55:36;95249.69;;;23.80;51.38
22257;BME280;11297;42.686;23.374;2022-07-04T02:58:01;95244.41;;;23.91;48.76
22257;BME280;11297;42.686;23.374;2022-07-04T03:00:27;95251.25;;;23.88;45.87
22257;BME280;11297;42.686;23.374;2022-07-04T03:02:53;95258.75;;;23.65;46.17
22257;BME280;11297;42.686;23.374;2022-07-04T03:05:19;95259.06;;;23.53;47.23
22257;BME280;11297;42.686;23.374;2022-07-04T03:07:45;95264.78;;;23.55;45.60
22257;BME280;11297;42.686;23.374;2022-07-04T03:10:10;95268.56;;;23.51;47.26
22257;BME280;11297;42.686;23.374;2022-07-04T03:12:35;95268.66;;;23.75;51.63
22257;BME280;11297;42.686;23.374;2022-07-04T03:15:01;95266.44;;;23.91;48.75
22257;BME280;11297;42.686;23.374;2022-07-04T03:17:26;95266.81;;;24.00;49.61
22257;BME280;11297;42.686;23.374;2022-07-04T03:19:53;95271.03;;;24.15;45.23
22257;BME280;11297;42.686;23.374;2022-07-04T03:22:18;95267.97;;;24.06;44.53
22257;BME280;11297;42.686;23.374;2022-07-04T03:24:44;95272.09;;;23.97;44.54
22257;BME280;11297;42.686;23.374;2022-07-04T03:27:09;95268.63;;;23.68;45.21
22257;BME280;11297;42.686;23.374;2022-07-04T03:29:35;95264.78;;;23.59;46.02
22257;BME280;11297;42.686;23.374;2022-07-04T03:32:00;95272.66;;;23.42;47.51
22257;BME280;11297;42.686;23.374;2022-07-04T03:34:26;95268.63;;;23.65;48.40
22257;BME280;11297;42.686;23.374;2022-07-04T03:36:51;95283.09;;;23.88;46.97
22257;BME280;11297;42.686;23.374;2022-07-04T03:39:17;95265.69;;;23.94;46.81
22257;BME280;11297;42.686;23.374;2022-07-04T03:41:42;95269.50;;;24.10;45.18
22257;BME280;11297;42.686;23.374;2022-07-04T03:44:08;95230.34;;;23.73;43.76
22257;BME280;11297;42.686;23.374;2022-07-04T03:46:33;95258.09;;;23.96;44.65
22257;BME280;11297;42.686;23.374;2022-07-04T03:48:59;95259.59;;;24.04;45.57
22257;BME280;11297;42.686;23.374;2022-07-04T03:51:24;95263.81;;;24.12;43.80
22257;BME280;11297;42.686;23.374;2022-07-04T03:53:50;95253.56;;;24.24;43.89
22257;BME280;11297;42.686;23.374;2022-07-04T03:56:16;95247.91;;;24.47;49.83
22257;BME280;11297;42.686;23.374;2022-07-04T03:58:42;95249.38;;;24.75;49.23
22257;BME280;11297;42.686;23.374;2022-07-04T04:01:08;95252.78;;;25.07;49.06
22257;BME280;11297;42.686;23.374;2022-07-04T04:03:34;95257.22;;;25.38;48.00
22257;BME280;11297;42.686;23.374;2022-07-04T04:06:18;95260.19;;;25.67;46.66
22257;BME280;11297;42.686;23.374;2022-07-04T04:08:43;95257.81;;;25.83;45.81
22257;BME280;11297;42.686;23.374;2022-07-04T04:11:09;95250.81;;;26.06;43.50
22257;BME280;11297;42.686;23.374;2022-07-04T04:13:35;95256.06;;;26.20;46.22
22257;BME280;11297;42.686;23.374;2022-07-04T04:16:00;95258.25;;;26.36;45.63
22257;BME280;11297;42.686;23.374;2022-07-04T04:18:26;95263.50;;;26.46;46.79
22257;BME280;11297;42.686;23.374;2022-07-04T04:20:52;95269.09;;;26.62;45.56
22257;BME280;11297;42.686;23.374;2022-07-04T04:23:17;95264.91;;;26.61;41.14
22257;BME280;11297;42.686;23.374;2022-07-04T04:25:42;95266.91;;;26.47;43.59
22257;BME280;11297;42.686;23.374;2022-07-04T04:28:08;95274.13;;;26.53;43.51
22257;BME280;11297;42.686;23.374;2022-07-04T04:30:34;95271.72;;;26.65;45.28
22257;BME280;11297;42.686;23.374;2022-07-04T04:32:59;95260.66;;;26.67;42.47
22257;BME280;11297;42.686;23.374;2022-07-04T04:35:25;95267.19;;;26.62;44.82
22257;BME280;11297;42.686;23.374;2022-07-04T04:37:50;95272.75;;;26.78;46.33
22257;BME280;11297;42.686;23.374;2022-07-04T04:40:16;95271.84;;;26.51;43.29
22257;BME280;11297;42.686;23.374;2022-07-04T04:42:42;95268.59;;;26.23;43.53
22257;BME280;11297;42.686;23.374;2022-07-04T04:45:08;95269.59;;;25.82;45.06
22257;BME280;11297;42.686;23.374;2022-07-04T04:47:33;95263.19;;;25.73;46.89
22257;BME280;11297;42.686;23.374;2022-07-04T04:49:58;95279.34;;;26.13;47.89
22257;BME280;11297;42.686;23.374;2022-07-04T04:52:25;95268.97;;;26.29;42.70
22257;BME280;11297;42.686;23.374;2022-07-04T04:54:51;95266.47;;;26.55;44.05
22257;BME280;11297;42.686;23.374;2022-07-04T04:57:16;95275.31;;;26.48;42.09
22257;BME280;11297;42.686;23.374;2022-07-04T04:59:42;95268.72;;;26.06;43.35
22257;BME280;11297;42.686;23.374;2022-07-04T05:02:07;95271.81;;;25.94;43.85
22257;BME280;11297;42.686;23.374;2022-07-04T05:04:33;95279.81;;;25.94;45.09
22257;BME280;11297;42.686;23.374;2022-07-04T05:06:58;95270.56;;;26.16;43.15
22257;BME280;11297;42.686;23.374;2022-07-04T05:09:24;95270.88;;;26.28;42.58
22257;BME280;11297;42.686;23.374;2022-07-04T05:11:49;95268.13;;;26.39;43.07
22257;BME280;11297;42.686;23.374;2022-07-04T05:14:15;95263.75;;;26.11;42.40
22257;BME280;11297;42.686;23.374;2022-07-04T05:16:40;95272.41;;;26.29;42.57
22257;BME280;11297;42.686;23.374;2022-07-04T05:19:06;95254.88;;;26.28;41.79
22257;BME280;11297;42.686;23.374;2022-07-04T05:21:31;95254.78;;;26.42;44.21
22257;BME280;11297;42.686;23.374;2022-07-04T05:23:57;95267.88;;;26.70;44.38
22257;BME280;11297;42.686;23.374;2022-07-04T05:26:23;95270.31;;;26.98;41.35
22257;BME280;11297;42.686;23.374;2022-07-04T05:28:49;95269.84;;;27.06;42.13
22257;BME280;11297;42.686;23.374;2022-07-04T05:31:15;95268.19;;;27.19;39.80
22257;BME280;11297;42.686;23.374;2022-07-04T05:33:40;95271.69;;;27.12;41.97
22257;BME280;11297;42.686;23.374;2022-07-04T05:36:06;95265.63;;;27.42;40.75
22257;BME280;11297;42.686;23.374;2022-07-04T05:38:32;95275.28;;;27.65;40.83
22257;BME280;11297;42.686;23.374;2022-07-04T05:40:57;95274.75;;;27.81;40.54
22257;BME280;11297;42.686;23.374;2022-07-04T05:43:22;95272.91;;;27.74;40.63
22257;BME280;11297;42.686;23.374;2022-07-04T05:45:50;95271.13;;;27.94;38.96
22257;BME280;11297;42.686;23.374;2022-07-04T05:48:16;95274.09;;;27.99;38.94
22257;BME280;11297;42.686;23.374;2022-07-04T05:50:41;95268.63;;;28.10;38.57
22257;BME280;11297;42.686;23.374;2022-07-04T05:53:07;95265.34;;;28.25;37.73
22257;BME280;11297;42.686;23.374;2022-07-04T05:55:32;95269.03;;;28.35;39.02
22257;BME280;11297;42.686;23.374;2022-07-04T05:57:59;95264.22;;;28.49;37.44
22257;BME280;11297;42.686;23.374;2022-07-04T06:00:25;95265.50;;;28.15;38.02
22257;BME280;11297;42.686;23.374;2022-07-04T06:02:50;95266.69;;;28.37;38.70
22257;BME280;11297;42.686;23.374;2022-07-04T06:05:16;95273.25;;;28.58;38.88
22257;BME280;11297;42.686;23.374;2022-07-04T06:07:41;95276.81;;;28.75;38.34
22257;BME280;11297;42.686;23.374;2022-07-04T06:10:08;95275.00;;;28.91;37.96
22257;BME280;11297;42.686;23.374;2022-07-04T06:12:33;95272.56;;;29.00;36.49
22257;BME280;11297;42.686;23.374;2022-07-04T06:14:59;95270.16;;;29.05;38.02
22257;BME280;11297;42.686;23.374;2022-07-04T06:17:24;95275.66;;;29.18;37.67
22257;BME280;11297;42.686;23.374;2022-07-04T06:19:50;95280.94;;;29.44;43.26
22257;BME280;11297;42.686;23.374;2022-07-04T06:22:15;95269.13;;;29.80;41.32
22257;BME280;11297;42.686;23.374;2022-07-04T06:24:41;95276.25;;;29.67;39.77
22257;BME280;11297;42.686;23.374;2022-07-04T06:27:07;95267.75;;;29.92;43.03
22257;BME280;11297;42.686;23.374;2022-07-04T06:29:32;95264.25;;;29.94;37.35
22257;BME280;11297;42.686;23.374;2022-07-04T06:31:58;95263.00;;;30.15;39.88
22257;BME280;11297;42.686;23.374;2022-07-04T06:34:23;95265.75;;;30.46;40.91
22257;BME280;11297;42.686;23.374;2022-07-04T06:37:07;95259.88;;;30.83;40.84
22257;BME280;11297;42.686;23.374;2022-07-04T06:39:33;95262.38;;;31.06;35.44
22257;BME280;11297;42.686;23.374;2022-07-04T06:41:58;95262.63;;;31.11;40.96
22257;BME280;11297;42.686;23.374;2022-07-04T06:44:24;95253.72;;;31.14;39.85
22257;BME280;11297;42.686;23.374;2022-07-04T06:46:49;95257.59;;;31.41;36.63
22257;BME280;11297;42.686;23.374;2022-07-04T06:49:16;95261.19;;;31.51;41.41
22257;BME280;11297;42.686;23.374;2022-07-04T06:51:41;95255.16;;;31.31;35.70
22257;BME280;11297;42.686;23.374;2022-07-04T06:54:07;95263.66;;;31.30;39.48
22257;BME280;11297;42.686;23.374;2022-07-04T06:56:32;95249.47;;;31.57;40.36
22257;BME280;11297;42.686;23.374;2022-07-04T06:58:58;95246.66;;;31.48;40.25
22257;BME280;11297;42.686;23.374;2022-07-04T07:01:23;95251.13;;;31.67;39.66
22257;BME280;11297;42.686;23.374;2022-07-04T07:03:49;95240.94;;;31.87;41.44
22257;BME280;11297;42.686;23.374;2022-07-04T07:06:14;95245.50;;;32.15;41.51
22257;BME280;11297;42.686;23.374;2022-07-04T07:08:40;95235.91;;;32.38;41.79
22257;BME280;11297;42.686;23.374;2022-07-04T07:11:05;95235.91;;;32.51;38.41
22257;BME280;11297;42.686;23.374;2022-07-04T07:13:46;95245.56;;;32.73;40.46
22257;BME280;11297;42.686;23.374;2022-07-04T07:16:13;95233.88;;;32.55;34.24
22257;BME280;11297;42.686;23.374;2022-07-04T07:18:38;95229.69;;;32.04;33.50
22257;BME280;11297;42.686;23.374;2022-07-04T07:21:04;95223.28;;;31.74;34.25
22257;BME280;11297;42.686;23.374;2022-07-04T07:23:29;95230.28;;;31.84;34.61
22257;BME280;11297;42.686;23.374;2022-07-04T07:25:55;95223.88;;;32.06;34.50
22257;BME280;11297;42.686;23.374;2022-07-04T07:28:20;95225.47;;;32.03;34.08
22257;BME280;11297;42.686;23.374;2022-07-04T07:30:46;95229.31;;;31.78;34.28
22257;BME280;11297;42.686;23.374;2022-07-04T07:33:11;95211.44;;;31.71;37.51
22257;BME280;11297;42.686;23.374;2022-07-04T07:35:37;95221.19;;;32.06;37.03
22257;BME280;11297;42.686;23.374;2022-07-04T07:38:03;95226.88;;;32.45;37.11
22257;BME280;11297;42.686;23.374;2022-07-04T07:40:31;95229.09;;;32.71;35.98
22257;BME280;11297;42.686;23.374;2022-07-04T07:42:56;95213.84;;;32.89;32.92
22257;BME280;11297;42.686;23.374;2022-07-04T07:45:23;95216.34;;;32.96;32.77
22257;BME280;11297;42.686;23.374;2022-07-04T07:47:48;95218.78;;;32.57;33.87
22257;BME280;11297;42.686;23.374;2022-07-04T07:50:13;95216.22;;;32.54;35.11
22257;BME280;11297;42.686;23.374;2022-07-04T07:52:39;95219.13;;;32.10;34.06
22257;BME280;11297;42.686;23.374;2022-07-04T07:55:05;95207.56;;;31.72;34.68
22257;BME280;11297;42.686;23.374;2022-07-04T07:57:31;95206.91;;;31.28;36.78
22257;BME280;11297;42.686;23.374;2022-07-04T07:59:57;95213.81;;;31.69;37.40
22257;BME280;11297;42.686;23.374;2022-07-04T08:02:22;95209.53;;;31.84;35.20
22257;BME280;11297;42.686;23.374;2022-07-04T08:05:07;95210.19;;;31.88;34.58
22257;BME280;11297;42.686;23.374;2022-07-04T08:07:33;95201.09;;;31.70;35.04
22257;BME280;11297;42.686;23.374;2022-07-04T08:09:59;95208.84;;;31.55;35.26
22257;BME280;11297;42.686;23.374;2022-07-04T08:12:24;95209.16;;;31.45;35.07
22257;BME280;11297;42.686;23.374;2022-07-04T08:14:50;95207.25;;;31.70;35.38
22257;BME280;11297;42.686;23.374;2022-07-04T08:17:15;95205.97;;;31.87;35.13
22257;BME280;11297;42.686;23.374;2022-07-04T08:19:41;95201.28;;;32.03;35.10
22257;BME280;11297;42.686;23.374;2022-07-04T08:22:06;95205.59;;;32.13;34.10
22257;BME280;11297;42.686;23.374;2022-07-04T08:24:31;95205.25;;;32.11;34.90
22257;BME280;11297;42.686;23.374;2022-07-04T08:26:57;95200.94;;;32.26;34.45
22257;BME280;11297;42.686;23.374;2022-07-04T08:29:22;95203.63;;;32.26;35.63
22257;BME280;11297;42.686;23.374;2022-07-04T08:31:48;95198.22;;;32.51;34.14
22257;BME280;11297;42.686;23.374;2022-07-04T08:34:14;95190.91;;;32.64;34.09
22257;BME280;11297;42.686;23.374;2022-07-04T08:36:39;95189.09;;;32.82;34.48
22257;BME280;11297;42.686;23.374;2022-07-04T08:39:05;95196.41;;;32.94;34.83
22257;BME280;11297;42.686;23.374;2022-07-04T08:41:37;95194.50;;;33.16;34.22
22257;BME280;11297;42.686;23.374;2022-07-04T08:44:04;95190.44;;;33.11;34.29
22257;BME280;11297;42.686;23.374;2022-07-04T08:46:30;95198.56;;;32.86;34.55
22257;BME280;11297;42.686;23.374;2022-07-04T08:48:58;95192.53;;;33.16;33.79
22257;BME280;11297;42.686;23.374;2022-07-04T08:54:08;95188.75;;;33.26;33.64
22257;BME280;11297;42.686;23.374;2022-07-04T08:56:55;95186.72;;;33.39;33.63
22257;BME280;11297;42.686;23.374;2022-07-04T08:59:40;95190.91;;;33.61;34.26
22257;BME280;11297;42.686;23.374;2022-07-04T09:02:10;95193.78;;;33.67;33.98
22257;BME280;11297;42.686;23.374;2022-07-04T09:04:39;95178.44;;;33.85;33.38
22257;BME280;11297;42.686;23.374;2022-07-04T09:07:05;95179.22;;;33.85;33.43
22257;BME280;11297;42.686;23.374;2022-07-04T09:09:32;95175.50;;;33.92;33.86
22257;BME280;11297;42.686;23.374;2022-07-04T09:11:58;95172.84;;;34.01;33.84
22257;BME280;11297;42.686;23.374;2022-07-04T09:14:23;95175.06;;;33.93;33.52
22257;BME280;11297;42.686;23.374;2022-07-04T09:16:49;95167.94;;;33.78;30.51
22257;BME280;11297;42.686;23.374;2022-07-04T09:19:20;95178.72;;;33.78;32.40
22257;BME280;11297;42.686;23.374;2022-07-04T09:21:46;95161.03;;;33.77;32.77
22257;BME280;11297;42.686;23.374;2022-07-04T09:24:13;95172.31;;;33.84;31.89
22257;BME280;11297;42.686;23.374;2022-07-04T09:26:46;95181.22;;;33.94;31.39
22257;BME280;11297;42.686;23.374;2022-07-04T09:29:12;95178.44;;;33.85;30.97
22257;BME280;11297;42.686;23.374;2022-07-04T09:31:38;95174.50;;;34.07;33.22
22257;BME280;11297;42.686;23.374;2022-07-04T09:34:05;95170.00;;;34.04;31.92
22257;BME280;11297;42.686;23.374;2022-07-04T09:36:33;95174.56;;;33.86;32.74
22257;BME280;11297;42.686;23.374;2022-07-04T09:42:01;95160.38;;;33.64;33.94
22257;BME280;11297;42.686;23.374;2022-07-04T09:44:44;95155.50;;;33.81;32.16
22257;BME280;11297;42.686;23.374;2022-07-04T09:47:20;95145.34;;;33.84;32.63
22257;BME280;11297;42.686;23.374;2022-07-04T09:52:43;95148.59;;;34.10;33.73
22257;BME280;11297;42.686;23.374;2022-07-04T09:55:08;95155.41;;;34.32;33.30
22257;BME280;11297;42.686;23.374;2022-07-04T09:57:34;95154.84;;;34.55;33.26
22257;BME280;11297;42.686;23.374;2022-07-04T10:00:19;95149.47;;;34.82;33.82
22257;BME280;11297;42.686;23.374;2022-07-04T10:02:45;95144.22;;;34.87;33.44
22257;BME280;11297;42.686;23.374;2022-07-04T10:05:10;95143.81;;;34.97;32.85
22257;BME280;11297;42.686;23.374;2022-07-04T10:07:40;95144.41;;;35.01;34.24
22257;BME280;11297;42.686;23.374;2022-07-04T10:10:29;95158.63;;;34.84;33.76
22257;BME280;11297;42.686;23.374;2022-07-04T10:13:01;95153.56;;;34.95;35.25
22257;BME280;11297;42.686;23.374;2022-07-04T10:15:27;95152.97;;;35.00;33.99
22257;BME280;11297;42.686;23.374;2022-07-04T10:17:53;95148.13;;;35.13;33.56
22257;BME280;11297;42.686;23.374;2022-07-04T10:20:18;95149.91;;;35.25;33.57
22257;BME280;11297;42.686;23.374;2022-07-04T10:22:44;95159.25;;;35.33;32.96
22257;BME280;11297;42.686;23.374;2022-07-04T10:25:10;95156.66;;;35.47;34.21
22257;BME280;11297;42.686;23.374;2022-07-04T10:27:37;95146.41;;;35.60;33.03
22257;BME280;11297;42.686;23.374;2022-07-04T10:30:05;95147.44;;;35.62;33.02
22257;BME280;11297;42.686;23.374;2022-07-04T10:32:33;95146.22;;;35.81;32.24
22257;BME280;11297;42.686;23.374;2022-07-04T10:34:59;95138.00;;;35.58;32.28
22257;BME280;11297;42.686;23.374;2022-07-04T10:37:24;95141.47;;;35.58;33.15
22257;BME280;11297;42.686;23.374;2022-07-04T10:39:51;95135.44;;;35.63;32.48
22257;BME280;11297;42.686;23.374;2022-07-04T10:42:24;95128.72;;;35.41;32.58
22257;BME280;11297;42.686;23.374;2022-07-04T10:44:49;95131.63;;;35.11;34.87
22257;BME280;11297;42.686;23.374;2022-07-04T10:47:23;95134.31;;;35.20;33.25
22257;BME280;11297;42.686;23.374;2022-07-04T10:49:56;95121.84;;;35.31;33.26
22257;BME280;11297;42.686;23.374;2022-07-04T10:52:21;95134.91;;;35.33;33.07
22257;BME280;11297;42.686;23.374;2022-07-04T10:54:47;95118.81;;;35.38;33.66
22257;BME280;11297;42.686;23.374;2022-07-04T10:59:40;95120.50;;;35.18;34.37
22257;BME280;11297;42.686;23.374;2022-07-04T11:20:29;95091.91;;;34.01;33.96
22257;BME280;11297;42.686;23.374;2022-07-04T11:25:34;95093.56;;;34.16;35.18
22257;BME280;11297;42.686;23.374;2022-07-04T11:28:31;95097.06;;;34.26;34.56
22257;BME280;11297;42.686;23.374;2022-07-04T11:31:01;95091.22;;;34.36;34.50
22257;BME280;11297;42.686;23.374;2022-07-04T11:33:29;95101.13;;;34.39;36.83
22257;BME280;11297;42.686;23.374;2022-07-04T11:38:47;95082.25;;;34.48;35.21
22257;BME280;11297;42.686;23.374;2022-07-04T11:41:14;95088.03;;;34.11;35.50
22257;BME280;11297;42.686;23.374;2022-07-04T11:44:03;95086.88;;;33.82;34.94
22257;BME280;11297;42.686;23.374;2022-07-04T11:46:47;95096.94;;;33.90;36.23
22257;BME280;11297;42.686;23.374;2022-07-04T11:49:12;95085.44;;;33.98;36.30
22257;BME280;11297;42.686;23.374;2022-07-04T11:51:45;95072.56;;;33.93;36.47
22257;BME280;11297;42.686;23.374;2022-07-04T11:54:11;95072.19;;;33.74;36.27
22257;BME280;11297;42.686;23.374;2022-07-04T11:56:37;95058.38;;;33.41;35.62
22257;BME280;11297;42.686;23.374;2022-07-04T11:59:13;95066.34;;;33.15;37.17
22257;BME280;11297;42.686;23.374;2022-07-04T12:01:41;95073.06;;;33.10;37.39
22257;BME280;11297;42.686;23.374;2022-07-04T12:06:37;95054.31;;;33.37;37.15
22257;BME280;11297;42.686;23.374;2022-07-04T12:09:04;95033.94;;;33.66;35.76
22257;BME280;11297;42.686;23.374;2022-07-04T12:11:49;95045.63;;;33.63;36.60
22257;BME280;11297;42.686;23.374;2022-07-04T12:14:14;95039.03;;;33.73;35.95
22257;BME280;11297;42.686;23.374;2022-07-04T12:16:40;95040.84;;;33.76;36.92
22257;BME280;11297;42.686;23.374;2022-07-04T12:19:09;95050.84;;;33.58;36.67
22257;BME280;11297;42.686;23.374;2022-07-04T12:21:35;95046.53;;;33.39;36.86
22257;BME280;11297;42.686;23.374;2022-07-04T12:24:01;95060.00;;;33.39;36.18
22257;BME280;11297;42.686;23.374;2022-07-04T12:26:32;95049.63;;;33.50;36.57
22257;BME280;11297;42.686;23.374;2022-07-04T12:28:59;95034.38;;;33.56;36.72
22257;BME280;11297;42.686;23.374;2022-07-04T12:31:38;95030.63;;;33.62;36.13
22257;BME280;11297;42.686;23.374;2022-07-04T12:34:13;95027.97;;;33.71;37.10
22257;BME280;11297;42.686;23.374;2022-07-04T12:36:56;95028.69;;;33.72;36.16
22257;BME280;11297;42.686;23.374;2022-07-04T12:39:33;95045.78;;;33.78;36.79
22257;BME280;11297;42.686;23.374;2022-07-04T12:42:11;95032.16;;;33.63;36.03
22257;BME280;11297;42.686;23.374;2022-07-04T12:44:39;95033.75;;;33.52;36.69
22257;BME280;11297;42.686;23.374;2022-07-04T12:47:05;95042.44;;;33.47;36.92
22257;BME280;11297;42.686;23.374;2022-07-04T12:49:32;95034.38;;;33.56;37.53
22257;BME280;11297;42.686;23.374;2022-07-04T12:52:08;95028.09;;;33.59;39.55
22257;BME280;11297;42.686;23.374;2022-07-04T12:54:35;95024.19;;;33.69;39.87
22257;BME280;11297;42.686;23.374;2022-07-04T12:57:18;95029.00;;;33.65;37.93
22257;BME280;11297;42.686;23.374;2022-07-04T12:59:44;95030.47;;;33.66;38.31
22257;BME280;11297;42.686;23.374;2022-07-04T13:02:10;95026.31;;;33.74;38.17
22257;BME280;11297;42.686;23.374;2022-07-04T13:04:37;95033.53;;;33.77;37.71
22257;BME280;11297;42.686;23.374;2022-07-04T13:07:14;95026.63;;;33.84;37.89
22257;BME280;11297;42.686;23.374;2022-07-04T13:09:41;95024.25;;;33.86;37.55
22257;BME280;11297;42.686;23.374;2022-07-04T13:12:06;95016.31;;;33.83;35.53
22257;BME280;11297;42.686;23.374;2022-07-04T13:14:51;95009.69;;;33.66;36.82
22257;BME280;11297;42.686;23.374;2022-07-04T13:17:17;95013.56;;;33.65;37.30
22257;BME280;11297;42.686;23.374;2022-07-04T13:19:43;95012.34;;;33.57;37.17
22257;BME280;11297;42.686;23.374;2022-07-04T13:22:08;95008.41;;;33.49;36.41
22257;BME280;11297;42.686;23.374;2022-07-04T13:24:33;95012.63;;;33.50;36.27
22257;BME280;11297;42.686;23.374;2022-07-04T13:26:59;94996.00;;;33.52;38.42
22257;BME280;11297;42.686;23.374;2022-07-04T13:29:24;94999.16;;;33.59;36.30